createdAt,value
2022-08-18T00:20:56.119Z,26.80
2022-08-18T00:22:57.773Z,26.85
2022-08-18T00:24:59.389Z,26.87
2022-08-18T00:27:00.988Z,26.84
2022-08-18T00:29:03.910Z,26.84
2022-08-18T00:31:06.313Z,26.73
2022-08-18T00:33:07.900Z,26.73
2022-08-18T00:35:12.605Z,26.77
2022-08-18T00:37:15.632Z,26.60
2022-08-18T00:39:17.315Z,26.65
2022-08-18T00:41:19.665Z,26.59
2022-08-18T00:43:26.077Z,26.70
2022-08-18T00:45:31.852Z,26.77
2022-08-18T00:47:42.856Z,26.70
2022-08-18T00:49:46.342Z,26.74
2022-08-18T00:51:51.644Z,26.71
2022-08-18T00:54:00.554Z,26.66
2022-08-18T00:56:07.818Z,26.56
2022-08-18T00:58:15.401Z,26.62
2022-08-18T01:00:17.336Z,26.61
2022-08-18T01:02:22.843Z,26.30
2022-08-18T01:04:28.005Z,26.27
2022-08-18T01:06:37.222Z,26.28
2022-08-18T01:08:38.776Z,26.32
2022-08-18T01:10:45.255Z,26.34
2022-08-18T01:12:49.332Z,26.23
2022-08-18T01:14:50.987Z,26.29
2022-08-18T01:16:57.054Z,26.25
2022-08-18T01:18:59.343Z,26.26
2022-08-18T01:21:09.010Z,26.21
2022-08-18T01:23:15.484Z,25.98
2022-08-18T01:25:21.379Z,25.97
2022-08-18T01:27:28.559Z,26.04
2022-08-18T01:29:30.157Z,26.03
2022-08-18T01:31:35.063Z,26.03
2022-08-18T01:33:40.423Z,26.07
2022-08-18T01:35:46.983Z,25.96
2022-08-18T01:37:49.068Z,25.93
2022-08-18T01:41:22.595Z,25.95
2022-08-18T01:42:15.921Z,25.97
2022-08-18T01:44:18.167Z,25.93
2022-08-18T01:46:20.692Z,25.86
2022-08-18T01:48:22.289Z,25.86
2022-08-18T01:50:23.860Z,25.88
2022-08-18T01:52:25.412Z,25.91
2022-08-18T01:54:29.065Z,25.88
2022-08-18T01:56:32.065Z,25.80
2022-08-18T01:58:35.414Z,25.79
2022-08-18T02:00:37.039Z,25.74
2022-08-18T02:02:39.504Z,25.79
2022-08-18T02:04:42.652Z,25.80
2022-08-18T02:06:46.464Z,25.76
2022-08-18T02:08:49.835Z,25.64
2022-08-18T02:10:55.948Z,25.68
2022-08-18T02:12:59.083Z,25.62
2022-08-18T02:15:00.645Z,25.62
2022-08-18T02:17:04.117Z,25.65
2022-08-18T02:19:05.707Z,25.62
2022-08-18T02:21:11.220Z,25.66
2022-08-18T02:23:12.766Z,25.67
2022-08-18T02:25:14.926Z,25.68
2022-08-18T02:27:17.061Z,25.68
2022-08-18T02:29:19.944Z,25.69
2022-08-18T02:31:24.098Z,25.65
2022-08-18T02:33:25.688Z,25.67
2022-08-18T02:35:27.666Z,25.65
2022-08-18T02:37:29.232Z,25.66
2022-08-18T02:39:33.705Z,25.58
2022-08-18T02:41:35.338Z,25.57
2022-08-18T02:43:37.894Z,25.56
2022-08-18T02:45:40.887Z,25.56
2022-08-18T02:47:44.198Z,25.55
2022-08-18T02:49:46.039Z,25.56
2022-08-18T02:51:47.653Z,25.54
2022-08-18T02:53:49.244Z,25.58
2022-08-18T02:55:51.017Z,25.57
2022-08-18T02:57:53.047Z,25.58
2022-08-18T02:59:55.193Z,25.58
2022-08-18T03:01:58.431Z,25.62
2022-08-18T03:04:00.815Z,25.58
2022-08-18T03:06:02.365Z,25.64
2022-08-18T03:08:04.322Z,25.67
2022-08-18T03:10:33.389Z,25.65
2022-08-18T03:12:29.644Z,25.63
2022-08-18T03:14:31.214Z,25.53
2022-08-18T03:16:33.861Z,25.54
2022-08-18T03:18:36.939Z,25.54
2022-08-18T03:20:38.566Z,25.47
2022-08-18T03:22:40.108Z,25.45
2022-08-18T03:24:41.769Z,25.48
2022-08-18T03:26:45.090Z,25.52
2022-08-18T03:28:48.393Z,25.54
2022-08-18T03:30:49.969Z,25.54
2022-08-18T03:32:51.528Z,25.56
2022-08-18T03:34:56.435Z,25.60
2022-08-18T03:36:58.535Z,25.54
2022-08-18T03:39:06.056Z,25.55
2022-08-18T03:41:08.256Z,25.54
2022-08-18T03:43:50.254Z,25.53
2022-08-18T03:45:31.360Z,25.50
2022-08-18T03:47:32.986Z,25.49
2022-08-18T03:49:35.018Z,25.48
2022-08-18T03:51:41.860Z,25.47
2022-08-18T03:53:44.334Z,25.39
2022-08-18T03:55:46.014Z,25.40
2022-08-18T03:57:47.705Z,25.45
2022-08-18T03:59:49.244Z,25.40
2022-08-18T04:01:52.041Z,25.40
2022-08-18T04:03:56.417Z,25.37
2022-08-18T04:05:57.953Z,25.29
2022-08-18T04:08:01.147Z,25.24
2022-08-18T04:10:03.386Z,25.29
2022-08-18T04:12:07.311Z,25.30
2022-08-18T04:14:09.025Z,25.37
2022-08-18T04:16:11.806Z,25.38
2022-08-18T04:18:13.355Z,25.37
2022-08-18T04:20:14.922Z,25.38
2022-08-18T04:22:17.463Z,25.40
2022-08-18T04:24:21.399Z,25.36
2022-08-18T04:26:22.983Z,25.36
2022-08-18T04:28:24.805Z,25.39
2022-08-18T04:30:26.808Z,25.42
2022-08-18T04:32:30.890Z,25.46
2022-08-18T04:34:33.326Z,25.44
2022-08-18T04:36:36.408Z,25.40
2022-08-18T04:38:38.727Z,25.39
2022-08-18T04:40:42.461Z,25.40
2022-08-18T04:42:45.133Z,25.37
2022-08-18T04:44:46.700Z,25.39
2022-08-18T04:46:50.312Z,25.30
2022-08-18T04:48:52.400Z,25.29
2022-08-18T04:50:53.964Z,25.25
2022-08-18T04:52:55.560Z,25.23
2022-08-18T04:54:57.107Z,25.25
2022-08-18T04:57:00.068Z,25.25
2022-08-18T04:59:05.090Z,25.24
2022-08-18T05:01:06.704Z,25.21
2022-08-18T05:03:08.365Z,25.20
2022-08-18T05:05:10.503Z,25.25
2022-08-18T05:07:14.150Z,25.21
2022-08-18T05:09:16.867Z,25.14
2022-08-18T05:11:26.825Z,25.12
2022-08-18T05:13:29.786Z,25.14
2022-08-18T05:15:46.835Z,25.15
2022-08-18T05:17:53.277Z,25.11
2022-08-18T05:19:55.587Z,25.09
2022-08-18T05:21:59.795Z,25.11
2022-08-18T05:24:03.248Z,25.05
2022-08-18T05:26:04.885Z,25.03
2022-08-18T05:28:06.445Z,25.05
2022-08-18T05:30:11.199Z,25.07
2022-08-18T05:32:40.995Z,25.10
2022-08-18T05:34:35.460Z,25.03
2022-08-18T05:37:09.487Z,25.06
2022-08-18T05:39:18.348Z,25.07
2022-08-18T05:41:25.505Z,25.06
2022-08-18T05:43:27.131Z,24.93
2022-08-18T05:45:30.190Z,24.96
2022-08-18T05:47:32.965Z,24.99
2022-08-18T05:49:35.915Z,25.01
2022-08-18T05:51:42.307Z,25.05
2022-08-18T05:53:45.557Z,25.02
2022-08-18T05:55:56.157Z,25.06
2022-08-18T05:58:03.209Z,25.10
2022-08-18T06:00:07.383Z,25.12
2022-08-18T06:02:16.788Z,25.16
2022-08-18T06:04:29.329Z,25.14
2022-08-18T06:06:33.135Z,25.08
2022-08-18T06:08:40.489Z,25.03
2022-08-18T06:10:47.321Z,25.04
2022-08-18T06:12:51.795Z,25.08
2022-08-18T06:15:05.656Z,25.14
2022-08-18T06:17:23.515Z,25.15
2022-08-18T06:19:40.605Z,25.19
2022-08-18T06:21:52.513Z,25.20
2022-08-18T06:24:06.622Z,25.22
2022-08-18T06:26:17.665Z,25.24
2022-08-18T06:28:19.344Z,25.24
2022-08-18T06:30:24.682Z,25.27
2022-08-18T06:32:46.477Z,25.30
2022-08-18T06:35:03.482Z,25.30
2022-08-18T06:37:11.931Z,25.34
2022-08-18T06:39:22.104Z,25.34
2022-08-18T06:41:42.578Z,25.35
2022-08-18T06:43:56.443Z,25.34
2022-08-18T06:46:00.475Z,25.34
2022-08-18T06:48:15.176Z,25.33
2022-08-18T06:50:22.597Z,25.32
2022-08-18T06:52:27.503Z,25.31
2022-08-18T06:54:30.480Z,25.32
2022-08-18T06:56:59.902Z,25.33
2022-08-18T06:59:17.436Z,25.31
2022-08-18T07:01:19.437Z,25.28
2022-08-18T07:03:24.065Z,25.33
2022-08-18T07:05:27.148Z,25.31
2022-08-18T07:07:39.517Z,25.23
2022-08-18T07:09:42.161Z,25.21
2022-08-18T07:11:58.683Z,25.14
2022-08-18T07:14:20.148Z,25.15
2022-08-18T07:16:47.075Z,25.13
2022-08-18T07:18:47.268Z,25.19
2022-08-18T07:20:52.075Z,25.21
2022-08-18T07:22:57.217Z,25.18
2022-08-18T07:25:05.504Z,25.19
2022-08-18T07:27:10.331Z,25.22
2022-08-18T07:29:15.476Z,25.24
2022-08-18T07:31:41.139Z,25.23
2022-08-18T07:33:51.268Z,25.25
2022-08-18T07:35:57.280Z,25.26
2022-08-18T07:38:18.662Z,25.31
2022-08-18T07:40:32.444Z,25.33
2022-08-18T07:42:53.956Z,25.28
2022-08-18T07:45:03.057Z,25.23
2022-08-18T07:47:12.361Z,25.27
2022-08-18T07:49:22.491Z,25.31
2022-08-18T07:51:36.029Z,25.35
2022-08-18T07:53:56.409Z,25.35
2022-08-18T07:56:04.981Z,25.27
2022-08-18T07:58:20.085Z,25.17
2022-08-18T08:00:54.811Z,25.14
2022-08-18T08:03:00.468Z,25.21
2022-08-18T08:17:25.567Z,25.26
2022-08-18T08:20:01.823Z,25.33
2022-08-18T08:25:42.713Z,25.42
2022-08-18T08:27:56.371Z,25.46
2022-08-18T08:30:04.397Z,25.48
2022-08-18T08:32:10.974Z,25.50
2022-08-18T08:34:16.749Z,25.48
2022-08-18T08:36:23.540Z,25.49
2022-08-18T08:38:42.123Z,25.50
2022-08-18T08:40:50.983Z,25.49
2022-08-18T08:42:58.735Z,25.50
2022-08-18T08:45:05.466Z,25.50
2022-08-18T08:47:15.068Z,25.48
2022-08-18T08:49:35.712Z,25.48
2022-08-18T08:51:41.821Z,25.46
2022-08-18T08:53:47.661Z,25.43
2022-08-18T08:55:53.305Z,25.42
2022-08-18T08:58:02.244Z,25.41
2022-08-18T09:00:08.314Z,25.41
2022-08-18T09:05:08.311Z,25.46
2022-08-18T09:07:29.534Z,25.46
2022-08-18T09:09:57.806Z,25.44
2022-08-18T09:12:32.076Z,25.48
2022-08-18T09:14:52.678Z,25.38
2022-08-18T09:17:16.114Z,25.29
2022-08-18T09:19:34.148Z,25.29
2022-08-18T09:21:44.160Z,25.28
2022-08-18T09:23:48.244Z,25.28
2022-08-18T09:25:52.159Z,25.27
2022-08-18T09:28:10.964Z,25.28
2022-08-18T09:30:40.005Z,25.25
2022-08-18T09:32:56.811Z,25.20
2022-08-18T09:35:09.016Z,25.22
2022-08-18T09:37:21.446Z,25.22
2022-08-18T09:39:31.969Z,25.23
2022-08-18T09:41:39.576Z,25.29
2022-08-18T09:43:56.492Z,25.36
2022-08-18T09:45:59.232Z,25.42
2022-08-18T09:51:23.342Z,25.59
2022-08-18T09:53:54.143Z,25.63
2022-08-18T09:56:01.342Z,25.81
2022-08-18T09:58:20.033Z,26.00
2022-08-18T10:00:30.473Z,26.03
2022-08-18T10:03:04.626Z,26.08
2022-08-18T10:05:27.005Z,26.37
2022-08-18T10:07:38.937Z,26.55
2022-08-18T10:09:58.618Z,26.74
2022-08-18T10:12:31.852Z,26.89
2022-08-18T10:14:52.605Z,27.03
2022-08-18T10:17:23.783Z,27.10
2022-08-18T10:19:39.902Z,27.16
2022-08-18T10:22:06.981Z,27.28
2022-08-18T10:24:36.446Z,27.38
2022-08-18T10:27:25.862Z,27.47
2022-08-18T10:29:54.548Z,27.37
2022-08-18T10:32:21.825Z,27.43
2022-08-18T10:34:38.423Z,27.39
2022-08-18T10:36:52.370Z,27.26
2022-08-18T10:38:54.193Z,27.34
2022-08-18T10:41:09.439Z,27.44
2022-08-18T10:45:59.381Z,27.53
2022-08-18T10:48:17.944Z,27.56
2022-08-18T10:50:23.048Z,27.51
2022-08-18T10:55:20.174Z,27.60
2022-08-18T10:57:31.220Z,27.58
2022-08-18T10:59:41.695Z,27.67
2022-08-18T11:02:06.089Z,27.76
2022-08-18T11:06:40.753Z,27.94
2022-08-18T11:08:45.109Z,27.99
2022-08-18T11:11:27.412Z,27.99
2022-08-18T11:13:21.518Z,28.01
2022-08-18T11:15:36.205Z,28.12
2022-08-18T11:17:55.024Z,28.13
2022-08-18T11:19:58.614Z,28.10
2022-08-18T11:22:00.336Z,28.17
2022-08-18T11:24:04.857Z,28.23
2022-08-18T11:26:14.322Z,28.35
2022-08-18T11:28:21.788Z,28.44
2022-08-18T11:30:35.337Z,28.56
2022-08-18T11:32:46.563Z,28.66
2022-08-18T11:35:02.985Z,28.59
2022-08-18T11:37:09.108Z,28.62
2022-08-18T11:39:12.576Z,28.66
2022-08-18T11:41:18.972Z,28.70
2022-08-18T11:43:29.730Z,28.73
2022-08-18T11:45:55.398Z,28.77
2022-08-18T11:48:11.099Z,28.56
2022-08-18T11:50:14.142Z,28.59
2022-08-18T11:52:26.237Z,28.66
2022-08-18T11:54:50.849Z,28.72
2022-08-18T11:57:37.732Z,28.86
2022-08-18T11:59:52.406Z,28.91
2022-08-18T12:01:57.169Z,28.91
2022-08-18T12:04:09.523Z,28.94
2022-08-18T12:06:21.916Z,28.93
2022-08-18T12:08:56.697Z,28.89
2022-08-18T12:13:26.630Z,28.99
2022-08-18T12:15:44.300Z,29.11
2022-08-18T12:17:52.137Z,29.28
2022-08-18T12:19:54.819Z,29.18
2022-08-18T12:22:01.540Z,29.19
2022-08-18T12:24:05.093Z,29.02
2022-08-18T12:26:06.828Z,29.03
2022-08-18T12:28:28.577Z,29.08
2022-08-18T12:30:30.183Z,29.16
2022-08-18T12:32:48.810Z,29.48
2022-08-18T12:34:52.725Z,29.81
2022-08-18T12:36:55.880Z,29.93
2022-08-18T12:38:58.843Z,29.92
2022-08-18T12:41:00.842Z,29.93
2022-08-18T12:43:05.906Z,29.78
2022-08-18T12:45:09.051Z,29.78
2022-08-18T12:47:13.506Z,29.97
2022-08-18T12:49:18.508Z,29.87
2022-08-18T12:51:20.095Z,29.79
2022-08-18T12:55:49.992Z,29.62
2022-08-18T13:00:18.674Z,29.63
2022-08-18T13:02:20.569Z,29.58
2022-08-18T13:04:22.499Z,29.66
2022-08-18T13:06:37.764Z,29.61
2022-08-18T13:08:50.244Z,29.73
2022-08-18T13:10:56.306Z,29.69
2022-08-18T13:12:59.838Z,29.74
2022-08-18T13:15:01.446Z,29.66
2022-08-18T13:17:03.133Z,29.63
2022-08-18T13:19:06.041Z,29.67
2022-08-18T13:21:08.748Z,29.52
2022-08-18T13:23:11.558Z,29.70
2022-08-18T13:25:28.692Z,29.75
2022-08-18T13:27:37.406Z,30.28
2022-08-18T13:29:39.272Z,30.86
2022-08-18T13:31:49.305Z,30.81
2022-08-18T13:34:00.670Z,30.50
2022-08-18T13:36:06.400Z,30.46
2022-08-18T13:38:14.132Z,30.10
2022-08-18T13:40:19.343Z,30.04
2022-08-18T13:42:26.675Z,29.92
2022-08-18T13:44:33.293Z,29.95
2022-08-18T13:46:34.958Z,30.63
2022-08-18T13:48:37.253Z,31.09
2022-08-18T13:50:39.887Z,31.12
2022-08-18T13:52:44.704Z,30.78
2022-08-18T13:54:46.537Z,31.36
2022-08-18T13:56:55.528Z,31.89
2022-08-18T13:58:59.928Z,32.08
2022-08-18T14:01:39.458Z,32.07
2022-08-18T14:03:47.046Z,32.23
2022-08-18T14:05:51.495Z,32.41
2022-08-18T14:07:54.646Z,32.22
2022-08-18T14:09:58.964Z,32.03
2022-08-18T14:12:15.492Z,32.05
2022-08-18T14:14:23.397Z,32.05
2022-08-18T14:16:28.984Z,31.61
2022-08-18T14:18:30.986Z,31.44
2022-08-18T14:20:35.769Z,31.14
2022-08-18T14:22:38.916Z,30.99
2022-08-18T14:24:42.435Z,30.86
2022-08-18T14:26:50.767Z,30.70
2022-08-18T14:28:52.841Z,30.63
2022-08-18T14:30:55.269Z,30.52
2022-08-18T14:32:59.301Z,30.45
2022-08-18T14:35:32.119Z,30.18
2022-08-18T14:37:25.284Z,29.95
2022-08-18T14:39:27.187Z,29.90
2022-08-18T14:41:31.299Z,29.82
2022-08-18T14:44:00.421Z,29.68
2022-08-18T14:45:58.033Z,29.75
2022-08-18T14:48:02.399Z,29.78
2022-08-18T14:50:10.091Z,29.74
2022-08-18T14:52:14.055Z,29.73
2022-08-18T14:54:19.439Z,29.69
2022-08-18T14:56:20.975Z,29.60
2022-08-18T14:58:26.931Z,29.52
2022-08-18T15:00:29.070Z,29.56
2022-08-18T15:02:30.663Z,29.62
2022-08-18T15:04:33.765Z,29.53
2022-08-18T15:06:40.125Z,29.47
2022-08-18T15:08:43.817Z,29.49
2022-08-18T15:10:49.196Z,29.49
2022-08-18T15:12:54.449Z,29.60
2022-08-18T15:14:56.292Z,29.41
2022-08-18T15:16:58.866Z,29.37
2022-08-18T15:19:01.904Z,29.39
2022-08-18T15:21:05.113Z,29.35
2022-08-18T15:23:24.890Z,29.37
2022-08-18T15:25:30.677Z,29.34
2022-08-18T15:27:42.400Z,29.35
2022-08-18T15:29:44.973Z,29.39
2022-08-18T15:31:50.228Z,29.39
2022-08-18T15:33:52.119Z,29.22
2022-08-18T15:35:54.123Z,29.27
2022-08-18T15:37:57.363Z,29.27
2022-08-18T15:40:01.374Z,29.23
2022-08-18T15:42:10.304Z,29.28
2022-08-18T15:44:13.023Z,29.27
2022-08-18T15:46:16.611Z,29.25
2022-08-18T15:48:22.906Z,29.27
2022-08-18T15:50:25.792Z,29.32
2022-08-18T15:52:27.781Z,29.36
2022-08-18T15:54:31.098Z,29.37
2022-08-18T15:56:33.390Z,29.34
2022-08-18T15:58:34.944Z,29.29
2022-08-18T16:00:38.246Z,29.31
2022-08-18T16:02:40.915Z,29.33
2022-08-18T16:04:47.003Z,29.39
2022-08-18T16:06:53.705Z,29.38
2022-08-18T16:08:57.252Z,29.38
2022-08-18T16:11:07.329Z,29.44
2022-08-18T16:13:09.506Z,29.47
2022-08-18T16:17:23.755Z,29.46
2022-08-18T16:19:31.899Z,29.50
2022-08-18T16:21:34.406Z,29.50
2022-08-18T16:23:37.142Z,29.46
2022-08-18T16:25:42.450Z,29.43
2022-08-18T16:27:46.099Z,29.46
2022-08-18T16:29:47.667Z,29.50
2022-08-18T16:31:49.220Z,29.49
2022-08-18T16:33:52.046Z,29.38
2022-08-18T16:35:53.796Z,29.35
2022-08-18T16:37:55.390Z,29.36
2022-08-18T16:39:57.909Z,29.37
2022-08-18T16:41:59.663Z,29.30
2022-08-18T16:44:02.821Z,29.22
2022-08-18T16:46:09.171Z,29.31
2022-08-18T16:48:12.573Z,29.30
2022-08-18T16:50:17.354Z,29.30
2022-08-18T16:52:19.849Z,29.37
2022-08-18T16:54:21.456Z,29.28
2022-08-18T16:56:26.304Z,29.27
2022-08-18T16:58:27.886Z,29.33
2022-08-18T17:00:33.768Z,29.33
2022-08-18T17:02:35.352Z,29.32
2022-08-18T17:04:37.183Z,29.31
2022-08-18T17:06:47.861Z,29.27
2022-08-18T17:08:49.683Z,29.28
2022-08-18T17:10:51.229Z,29.27
2022-08-18T17:12:52.895Z,29.26
2022-08-18T17:14:54.914Z,29.31
2022-08-18T17:16:59.212Z,29.31
2022-08-18T17:19:03.704Z,29.30
2022-08-18T17:21:07.680Z,29.31
2022-08-18T17:23:09.264Z,29.35
2022-08-18T17:25:13.325Z,29.38
2022-08-18T17:27:26.627Z,29.38
2022-08-18T17:29:34.770Z,29.37
2022-08-18T17:31:36.574Z,29.35
2022-08-18T17:33:42.790Z,29.35
2022-08-18T17:35:46.394Z,29.32
2022-08-18T17:37:53.659Z,29.29
2022-08-18T17:39:57.804Z,29.32
2022-08-18T17:41:59.428Z,29.32
2022-08-18T17:44:03.164Z,29.33
2022-08-18T17:46:13.443Z,29.31
2022-08-18T17:48:21.865Z,29.31
2022-08-18T17:50:30.715Z,29.31
2022-08-18T17:52:38.499Z,29.27
2022-08-18T17:54:43.904Z,29.23
2022-08-18T17:56:51.152Z,29.24
2022-08-18T17:58:55.952Z,29.24
2022-08-18T18:00:57.502Z,29.23
2022-08-18T18:02:59.652Z,29.23
2022-08-18T18:05:03.697Z,29.24
2022-08-18T18:07:19.887Z,29.18
2022-08-18T18:09:30.335Z,29.17
2022-08-18T18:11:35.236Z,29.07
2022-08-18T18:13:36.883Z,28.93
2022-08-18T18:15:42.978Z,28.82
2022-08-18T18:17:44.633Z,28.63
2022-08-18T18:19:49.601Z,28.63
2022-08-18T18:22:03.590Z,28.70
2022-08-18T18:24:15.144Z,28.75
2022-08-18T18:26:24.283Z,28.70
2022-08-18T18:28:28.341Z,28.69
2022-08-18T18:30:30.059Z,28.76
2022-08-18T18:32:34.678Z,28.75
2022-08-18T18:34:42.803Z,28.71
2022-08-18T18:36:47.292Z,28.72
2022-08-18T18:39:06.367Z,28.75
2022-08-18T18:41:22.282Z,28.73
2022-08-18T18:43:26.579Z,28.68
2022-08-18T18:45:30.362Z,28.66
2022-08-18T18:48:03.171Z,28.69
2022-08-18T18:50:09.615Z,28.76
2022-08-18T18:52:19.174Z,28.75
2022-08-18T18:54:39.171Z,28.79
2022-08-18T18:56:47.670Z,28.72
2022-08-18T18:59:04.998Z,28.79
2022-08-18T19:01:13.975Z,28.76
2022-08-18T19:03:20.050Z,28.75
2022-08-18T19:05:27.889Z,28.77
2022-08-18T19:07:36.219Z,28.77
2022-08-18T19:09:50.114Z,28.76
2022-08-18T19:12:10.794Z,28.77
2022-08-18T19:14:16.824Z,28.81
2022-08-18T19:16:23.738Z,28.82
2022-08-18T19:18:27.825Z,28.83
2022-08-18T19:20:36.504Z,28.85
2022-08-18T19:22:42.168Z,28.87
2022-08-18T19:24:52.518Z,28.88
2022-08-18T19:26:59.723Z,28.86
2022-08-18T19:29:13.300Z,28.85
2022-08-18T19:31:23.212Z,28.89
2022-08-18T19:33:32.505Z,28.90
2022-08-18T19:35:49.406Z,28.96
2022-08-18T19:38:06.707Z,28.94
2022-08-18T19:40:16.673Z,28.92
2022-08-18T19:42:27.955Z,28.91
2022-08-18T19:44:51.054Z,28.91
2022-08-18T19:47:09.837Z,28.94
2022-08-18T19:49:19.524Z,28.94
2022-08-18T19:51:28.421Z,28.91
2022-08-18T19:53:52.744Z,28.92
2022-08-18T19:56:11.351Z,28.90
2022-08-18T19:59:11.558Z,28.90
2022-08-18T20:01:20.889Z,28.88
2022-08-18T20:03:43.027Z,28.88
2022-08-18T20:05:53.415Z,28.85
2022-08-18T20:08:22.882Z,28.86
2022-08-18T20:10:43.890Z,28.88
2022-08-18T20:13:13.550Z,28.86
2022-08-18T20:15:18.724Z,28.85
2022-08-18T20:17:21.921Z,28.87
2022-08-18T20:19:48.675Z,28.88
2022-08-18T20:22:01.788Z,28.86
2022-08-18T20:24:05.567Z,28.85
2022-08-18T20:26:41.152Z,28.85
2022-08-18T20:28:42.766Z,28.83
2022-08-18T20:30:58.066Z,28.84
2022-08-18T20:33:14.870Z,28.81
2022-08-18T20:35:24.580Z,28.79
2022-08-18T20:37:27.218Z,28.75
2022-08-18T20:39:43.660Z,28.75
2022-08-18T20:41:45.575Z,28.73
2022-08-18T20:43:50.906Z,28.76
2022-08-18T20:46:03.408Z,28.72
2022-08-18T20:48:20.420Z,28.67
2022-08-18T20:50:42.987Z,28.67
2022-08-18T20:52:48.824Z,28.65
2022-08-18T20:55:00.275Z,28.60
2022-08-18T20:57:12.116Z,28.57
2022-08-18T20:59:17.679Z,28.54
2022-08-18T21:01:23.519Z,28.51
2022-08-18T21:03:35.614Z,28.45
2022-08-18T21:05:39.690Z,28.45
2022-08-18T21:08:01.018Z,28.52
2022-08-18T21:10:12.391Z,28.55
2022-08-18T21:12:21.346Z,28.59
2022-08-18T21:14:29.866Z,28.62
2022-08-18T21:16:39.387Z,28.62
2022-08-18T21:18:49.614Z,28.64
2022-08-18T21:20:53.663Z,28.63
2022-08-18T21:23:08.912Z,28.63
2022-08-18T21:25:14.102Z,28.60
2022-08-18T21:27:24.369Z,28.57
2022-08-18T21:29:27.360Z,28.54
2022-08-18T21:31:50.343Z,28.52
2022-08-18T21:33:53.940Z,28.51
2022-08-18T21:35:55.699Z,28.54
2022-08-18T21:37:59.313Z,28.57
2022-08-18T21:40:02.696Z,28.53
2022-08-18T21:42:04.816Z,28.50
2022-08-18T21:44:08.642Z,28.46
2022-08-18T21:46:13.004Z,28.40
2022-08-18T21:48:16.104Z,28.36
2022-08-18T21:50:20.023Z,28.31
2022-08-18T21:52:22.279Z,28.29
2022-08-18T21:54:29.124Z,28.25
2022-08-18T21:56:34.078Z,28.20
2022-08-18T21:58:40.044Z,28.12
2022-08-18T22:00:43.441Z,28.05
2022-08-18T22:02:45.720Z,27.95
2022-08-18T22:04:48.698Z,27.90
2022-08-18T22:06:54.189Z,27.84
2022-08-18T22:08:58.934Z,27.81
2022-08-18T22:11:18.299Z,27.77
2022-08-18T22:13:49.251Z,27.68
2022-08-18T22:15:53.913Z,27.68
2022-08-18T22:17:58.569Z,27.66
2022-08-18T22:20:34.261Z,27.64
2022-08-18T22:22:35.851Z,27.62
2022-08-18T22:24:38.756Z,27.64
2022-08-18T22:26:40.629Z,27.64
2022-08-18T22:28:49.930Z,27.66
2022-08-18T22:30:51.651Z,27.64
2022-08-18T22:32:53.465Z,27.63
2022-08-18T22:34:55.254Z,27.60
2022-08-18T22:37:00.824Z,27.62
2022-08-18T22:39:02.669Z,27.64
2022-08-18T22:41:04.740Z,27.68
2022-08-18T22:43:06.309Z,27.68
2022-08-18T22:45:11.321Z,27.66
2022-08-18T22:47:13.359Z,27.64
2022-08-18T22:49:15.125Z,27.65
2022-08-18T22:51:22.143Z,27.68
2022-08-18T22:53:25.174Z,27.70
2022-08-18T22:55:26.807Z,27.70
2022-08-18T22:57:30.464Z,27.71
2022-08-18T22:59:34.494Z,27.73
2022-08-18T23:01:36.966Z,27.76
2022-08-18T23:03:41.962Z,27.77
2022-08-18T23:05:44.176Z,27.77
2022-08-18T23:07:45.763Z,27.80
2022-08-18T23:09:48.794Z,27.79
2022-08-18T23:11:51.642Z,27.80
2022-08-18T23:13:53.289Z,27.85
2022-08-18T23:15:54.933Z,27.86
2022-08-18T23:21:07.051Z,27.77
2022-08-18T23:23:08.621Z,27.78
2022-08-18T23:25:11.609Z,27.76
2022-08-18T23:27:13.288Z,27.68
2022-08-18T23:29:14.918Z,27.64
2022-08-18T23:31:17.009Z,27.59
2022-08-18T23:33:19.021Z,27.53
2022-08-18T23:35:20.670Z,27.54
2022-08-18T23:37:22.286Z,27.58
2022-08-18T23:39:25.310Z,27.57
2022-08-18T23:41:31.356Z,27.56
2022-08-18T23:43:32.960Z,27.51
2022-08-18T23:45:35.415Z,27.47
2022-08-18T23:47:37.609Z,27.45
2022-08-18T23:49:39.263Z,27.47
2022-08-18T23:51:43.766Z,27.49
2022-08-18T23:53:45.357Z,27.54
2022-08-18T23:55:46.894Z,27.58
2022-08-18T23:57:49.862Z,27.65
2022-08-18T23:59:51.437Z,27.67
